createdAt,value
2017-07-26T00:01:24.098Z,30.67
2017-07-26T00:03:52.183Z,33.20
2017-07-26T00:06:20.275Z,33.57
2017-07-26T00:08:48.331Z,34.80
2017-07-26T00:11:16.419Z,32.87
2017-07-26T00:13:44.654Z,31.83
2017-07-26T00:16:12.743Z,34.17
2017-07-26T00:18:40.826Z,31.07
2017-07-26T00:21:08.868Z,34.63
2017-07-26T00:23:36.950Z,35.23
2017-07-26T00:26:05.006Z,34.47
2017-07-26T00:28:33.114Z,35.23
2017-07-26T00:31:01.156Z,35.30
2017-07-26T00:33:29.238Z,36.37
2017-07-26T00:35:57.293Z,33.00
2017-07-26T00:38:25.361Z,33.77
2017-07-26T00:40:53.430Z,35.73
2017-07-26T00:43:21.499Z,34.97
2017-07-26T00:45:49.571Z,34.20
2017-07-26T00:48:17.659Z,37.93
2017-07-26T00:50:45.722Z,33.77
2017-07-26T00:53:13.812Z,35.97
2017-07-26T00:55:41.869Z,36.47
2017-07-26T00:58:09.931Z,35.43
2017-07-26T01:00:38.009Z,36.70
2017-07-26T01:03:06.070Z,36.70
2017-07-26T01:05:34.162Z,36.00
2017-07-26T01:08:02.250Z,34.20
2017-07-26T01:10:31.092Z,38.23
2017-07-26T01:12:59.171Z,34.97
2017-07-26T01:15:27.281Z,40.07
2017-07-26T01:17:55.335Z,37.70
2017-07-26T01:20:23.396Z,38.00
2017-07-26T01:22:51.483Z,39.90
2017-07-26T01:25:19.551Z,41.43
2017-07-26T01:27:47.644Z,42.40
2017-07-26T01:30:15.694Z,40.37
2017-07-26T01:32:43.766Z,42.60
2017-07-26T01:35:11.843Z,41.07
2017-07-26T01:37:39.914Z,47.33
2017-07-26T01:40:07.984Z,50.17
2017-07-26T01:42:36.066Z,40.90
2017-07-26T01:45:04.134Z,44.53
2017-07-26T01:47:32.200Z,46.10
2017-07-26T01:50:00.268Z,42.83
2017-07-26T01:52:28.338Z,44.53
2017-07-26T01:54:56.411Z,47.43
2017-07-26T01:57:24.491Z,42.10
2017-07-26T01:59:52.563Z,44.03
2017-07-26T02:02:20.627Z,40.83
2017-07-26T02:04:48.694Z,41.40
2017-07-26T02:07:16.767Z,41.07
2017-07-26T02:09:44.834Z,39.37
2017-07-26T02:12:12.931Z,39.80
2017-07-26T02:14:40.994Z,45.63
2017-07-26T02:17:09.053Z,38.37
2017-07-26T02:19:37.128Z,37.10
2017-07-26T02:22:05.199Z,39.27
2017-07-26T02:24:33.284Z,38.20
2017-07-26T02:27:01.349Z,36.03
2017-07-26T02:29:29.435Z,34.97
2017-07-26T02:31:57.502Z,36.23
2017-07-26T02:34:27.047Z,37.83
2017-07-26T02:36:55.123Z,35.60
2017-07-26T02:39:23.174Z,37.47
2017-07-26T02:41:52.003Z,34.10
2017-07-26T02:44:20.099Z,33.70
2017-07-26T02:46:48.178Z,31.80
2017-07-26T02:49:16.242Z,34.67
2017-07-26T02:51:44.312Z,31.57
2017-07-26T02:54:12.389Z,30.50
2017-07-26T02:56:40.459Z,31.23
2017-07-26T02:59:08.514Z,27.87
2017-07-26T03:01:36.586Z,29.77
2017-07-26T03:04:04.669Z,28.23
2017-07-26T03:06:32.741Z,31.33
2017-07-26T03:09:00.788Z,29.77
2017-07-26T03:11:28.880Z,30.07
2017-07-26T03:13:56.942Z,28.17
2017-07-26T03:16:25.006Z,28.37
2017-07-26T03:18:53.086Z,28.80
2017-07-26T03:21:21.163Z,31.03
2017-07-26T03:23:49.238Z,33.47
2017-07-26T03:26:17.308Z,28.83
2017-07-26T03:28:45.379Z,29.77
2017-07-26T03:31:13.451Z,27.03
2017-07-26T03:33:41.590Z,27.27
2017-07-26T03:36:09.723Z,28.73
2017-07-26T03:38:37.798Z,31.90
2017-07-26T03:41:05.874Z,27.93
2017-07-26T03:43:33.934Z,32.70
2017-07-26T03:46:02.006Z,28.97
2017-07-26T03:48:30.068Z,35.67
2017-07-26T03:50:58.131Z,28.30
2017-07-26T03:53:26.219Z,31.00
2017-07-26T03:55:54.290Z,30.33
2017-07-26T03:58:22.359Z,29.37
2017-07-26T04:00:50.438Z,32.60
2017-07-26T04:03:18.515Z,30.60
2017-07-26T04:05:46.626Z,31.60
2017-07-26T04:08:14.684Z,27.97
2017-07-26T04:10:42.763Z,30.33
2017-07-26T04:13:10.834Z,30.50
2017-07-26T04:15:38.907Z,30.73
2017-07-26T04:18:06.979Z,31.43
2017-07-26T04:20:35.054Z,28.90
2017-07-26T04:23:03.119Z,34.50
2017-07-26T04:25:31.191Z,34.13
2017-07-26T04:27:59.263Z,32.93
2017-07-26T04:30:27.323Z,31.93
2017-07-26T04:32:55.384Z,32.17
2017-07-26T04:35:23.455Z,33.97
2017-07-26T04:37:51.527Z,30.40
2017-07-26T04:40:19.602Z,28.40
2017-07-26T04:42:47.686Z,29.00
2017-07-26T04:45:15.762Z,30.30
2017-07-26T04:47:43.843Z,31.07
2017-07-26T04:50:11.943Z,32.00
2017-07-26T04:52:40.003Z,30.93
2017-07-26T04:55:08.074Z,29.90
2017-07-26T04:57:37.031Z,33.90
2017-07-26T05:00:05.091Z,30.57
2017-07-26T05:02:33.176Z,31.10
2017-07-26T05:05:01.591Z,28.33
2017-07-26T05:07:29.647Z,31.20
2017-07-26T05:09:57.712Z,36.60
2017-07-26T05:12:25.814Z,35.67
2017-07-26T05:14:53.870Z,37.30
2017-07-26T05:17:21.930Z,39.17
2017-07-26T05:19:50.016Z,36.80
2017-07-26T05:22:18.083Z,39.37
2017-07-26T05:24:46.138Z,34.10
2017-07-26T05:27:14.219Z,33.37
2017-07-26T05:29:42.286Z,33.80
2017-07-26T05:32:10.367Z,32.53
2017-07-26T05:34:38.423Z,34.80
2017-07-26T05:37:06.477Z,34.53
2017-07-26T05:39:34.556Z,35.93
2017-07-26T05:42:02.623Z,29.47
2017-07-26T05:44:30.684Z,31.07
2017-07-26T05:46:58.766Z,29.33
2017-07-26T05:49:26.835Z,28.50
2017-07-26T05:51:54.934Z,34.33
2017-07-26T05:54:23.006Z,28.73
2017-07-26T05:56:51.070Z,29.80
2017-07-26T05:59:19.153Z,29.40
2017-07-26T06:01:47.202Z,29.57
2017-07-26T06:04:15.251Z,26.87
2017-07-26T06:06:43.345Z,32.53
2017-07-26T06:09:11.401Z,28.80
2017-07-26T06:11:39.463Z,29.27
2017-07-26T06:14:07.535Z,28.33
2017-07-26T06:16:35.608Z,29.83
2017-07-26T06:19:03.670Z,27.83
2017-07-26T06:21:31.739Z,28.90
2017-07-26T06:23:59.829Z,27.93
2017-07-26T06:26:27.887Z,24.07
2017-07-26T06:28:55.958Z,28.17
2017-07-26T06:31:24.030Z,22.37
2017-07-26T06:33:52.085Z,25.03
2017-07-26T06:36:20.163Z,29.27
2017-07-26T06:38:48.218Z,30.67
2017-07-26T06:41:16.294Z,21.20
2017-07-26T06:43:44.371Z,23.07
2017-07-26T06:46:12.442Z,25.13
2017-07-26T06:48:40.529Z,22.17
2017-07-26T06:51:08.604Z,23.23
2017-07-26T06:53:36.669Z,27.87
2017-07-26T06:56:04.738Z,30.80
2017-07-26T06:58:32.800Z,23.30
2017-07-26T07:01:00.883Z,21.63
2017-07-26T07:03:28.958Z,21.53
2017-07-26T07:05:57.024Z,21.20
2017-07-26T07:08:25.112Z,20.80
2017-07-26T07:10:53.162Z,21.27
2017-07-26T07:13:21.230Z,24.17
2017-07-26T07:15:49.296Z,18.87
2017-07-26T07:18:17.373Z,19.77
2017-07-26T07:20:45.458Z,16.77
2017-07-26T07:23:13.523Z,20.20
2017-07-26T07:25:41.590Z,17.97
2017-07-26T07:28:09.667Z,16.30
2017-07-26T07:30:37.767Z,17.07
2017-07-26T07:33:05.858Z,18.17
2017-07-26T07:35:34.671Z,16.67
2017-07-26T07:38:02.753Z,13.50
2017-07-26T07:40:30.831Z,14.77
2017-07-26T07:42:58.894Z,19.80
2017-07-26T07:45:26.967Z,13.80
2017-07-26T07:47:55.042Z,16.83
2017-07-26T07:50:23.136Z,14.63
2017-07-26T07:52:51.192Z,14.43
2017-07-26T07:55:19.268Z,16.47
2017-07-26T07:57:47.320Z,18.83
2017-07-26T08:00:15.394Z,20.13
2017-07-26T08:02:43.463Z,17.50
2017-07-26T08:05:11.538Z,18.27
2017-07-26T08:07:39.622Z,15.53
2017-07-26T08:10:07.686Z,21.17
2017-07-26T08:12:35.754Z,16.60
2017-07-26T08:15:03.828Z,13.07
2017-07-26T08:17:31.915Z,12.73
2017-07-26T08:19:59.998Z,9.70
2017-07-26T08:22:28.247Z,12.03
2017-07-26T08:24:56.291Z,8.50
2017-07-26T08:27:24.356Z,8.03
2017-07-26T08:29:53.178Z,12.47
2017-07-26T08:32:21.267Z,14.13
2017-07-26T08:34:49.331Z,11.17
2017-07-26T08:37:17.383Z,10.50
2017-07-26T08:39:46.244Z,12.20
2017-07-26T08:42:18.058Z,12.77
2017-07-26T08:44:46.163Z,13.63
2017-07-26T08:47:14.225Z,13.70
2017-07-26T08:49:42.291Z,10.37
2017-07-26T08:52:10.373Z,10.97
2017-07-26T08:54:38.615Z,10.23
2017-07-26T08:57:06.699Z,10.33
2017-07-26T08:59:34.766Z,11.40
2017-07-26T09:02:02.830Z,10.27
2017-07-26T09:04:30.915Z,9.70
2017-07-26T09:06:59.001Z,7.70
2017-07-26T09:09:27.051Z,8.83
2017-07-26T09:11:55.109Z,11.37
2017-07-26T09:14:23.178Z,11.60
2017-07-26T09:16:51.263Z,10.43
2017-07-26T09:19:19.356Z,24.40
2017-07-26T09:21:47.418Z,8.43
2017-07-26T09:24:15.479Z,7.70
2017-07-26T09:26:43.549Z,9.07
2017-07-26T09:29:11.587Z,7.33
2017-07-26T09:31:40.424Z,13.03
2017-07-26T09:34:08.497Z,6.43
2017-07-26T09:36:36.550Z,6.83
2017-07-26T09:39:04.626Z,6.27
2017-07-26T09:41:33.463Z,5.80
2017-07-26T09:44:01.530Z,9.73
2017-07-26T09:46:29.590Z,9.00
2017-07-26T09:48:57.791Z,6.00
2017-07-26T09:51:25.874Z,5.87
2017-07-26T09:53:53.960Z,5.00
2017-07-26T09:56:22.006Z,4.80
2017-07-26T09:58:50.065Z,4.97
2017-07-26T10:01:18.127Z,6.93
2017-07-26T10:03:46.211Z,7.17
2017-07-26T10:06:14.275Z,6.17
2017-07-26T10:08:42.330Z,5.53
2017-07-26T10:11:11.039Z,6.63
2017-07-26T10:13:39.106Z,8.03
2017-07-26T10:16:07.169Z,7.00
2017-07-26T10:18:35.241Z,6.53
2017-07-26T10:21:03.304Z,6.80
2017-07-26T10:23:31.372Z,8.13
2017-07-26T10:25:59.467Z,5.90
2017-07-26T10:28:27.526Z,5.97
2017-07-26T10:30:55.592Z,5.47
2017-07-26T10:33:23.643Z,5.93
2017-07-26T10:35:51.727Z,9.73
2017-07-26T10:38:19.783Z,5.10
2017-07-26T10:40:47.844Z,7.17
2017-07-26T10:43:15.924Z,6.73
2017-07-26T10:45:43.986Z,6.00
2017-07-26T10:48:12.031Z,6.53
2017-07-26T10:50:40.871Z,5.40
2017-07-26T10:53:09.759Z,5.57
2017-07-26T10:55:37.835Z,5.30
2017-07-26T10:58:05.895Z,5.07
2017-07-26T11:00:33.960Z,5.17
2017-07-26T11:03:02.040Z,4.83
2017-07-26T11:05:30.091Z,6.07
2017-07-26T11:07:58.176Z,6.20
2017-07-26T11:10:26.241Z,5.17
2017-07-26T11:12:54.301Z,5.10
2017-07-26T11:15:22.376Z,4.57
2017-07-26T11:17:50.459Z,6.40
2017-07-26T11:20:18.526Z,6.43
2017-07-26T11:22:46.595Z,4.73
2017-07-26T11:25:14.683Z,4.27
2017-07-26T11:27:42.738Z,4.50
2017-07-26T11:30:10.795Z,4.30
2017-07-26T11:32:38.867Z,4.50
2017-07-26T11:35:06.935Z,4.10
2017-07-26T11:37:34.986Z,4.20
2017-07-26T11:40:03.855Z,29.80
2017-07-26T11:42:31.900Z,6.47
2017-07-26T11:44:59.953Z,4.17
2017-07-26T11:47:28.794Z,4.30
2017-07-26T11:49:56.847Z,4.00
2017-07-26T11:52:24.903Z,5.97
2017-07-26T11:54:52.999Z,4.80
2017-07-26T11:57:21.052Z,3.93
2017-07-26T11:59:49.110Z,4.40
2017-07-26T12:02:17.196Z,4.50
2017-07-26T12:04:45.262Z,4.60
2017-07-26T12:07:13.308Z,4.87
2017-07-26T12:09:42.143Z,4.77
2017-07-26T12:12:10.219Z,5.20
2017-07-26T12:14:38.283Z,4.53
2017-07-26T12:17:06.363Z,5.17
2017-07-26T12:19:34.407Z,3.93
2017-07-26T12:22:02.480Z,5.57
2017-07-26T12:24:30.553Z,6.10
2017-07-26T12:26:58.615Z,5.90
2017-07-26T12:29:26.694Z,6.00
2017-07-26T12:31:54.760Z,7.30
2017-07-26T12:34:22.834Z,5.70
2017-07-26T12:36:50.883Z,5.13
2017-07-26T12:39:19.718Z,4.80
2017-07-26T12:41:47.762Z,3.83
2017-07-26T12:44:15.807Z,3.90
2017-07-26T12:46:44.642Z,5.77
2017-07-26T12:49:12.707Z,5.23
2017-07-26T12:51:40.794Z,5.13
2017-07-26T12:54:08.838Z,4.37
2017-07-26T12:56:37.767Z,3.70
2017-07-26T12:59:05.853Z,4.20
2017-07-26T13:01:33.919Z,3.33
2017-07-26T13:04:01.999Z,3.53
2017-07-26T13:06:30.066Z,3.53
2017-07-26T13:08:58.200Z,2.80
2017-07-26T13:11:26.268Z,4.13
2017-07-26T13:13:54.336Z,3.40
2017-07-26T13:16:22.413Z,3.90
2017-07-26T13:18:50.471Z,4.40
2017-07-26T13:21:18.532Z,4.77
2017-07-26T13:23:46.607Z,3.90
2017-07-26T13:26:15.417Z,4.30
2017-07-26T13:28:43.495Z,3.50
2017-07-26T13:31:11.554Z,4.37
2017-07-26T13:33:39.626Z,4.93
2017-07-26T13:36:07.743Z,5.20
2017-07-26T13:38:35.785Z,4.50
2017-07-26T13:41:03.877Z,5.93
2017-07-26T13:43:31.944Z,5.77
2017-07-26T13:45:59.998Z,4.90
2017-07-26T13:48:28.040Z,5.00
2017-07-26T13:50:56.124Z,4.33
2017-07-26T13:53:24.186Z,3.60
2017-07-26T13:55:52.241Z,4.13
2017-07-26T13:58:21.092Z,8.67
2017-07-26T14:00:49.150Z,3.90
2017-07-26T14:03:17.207Z,4.03
2017-07-26T14:05:45.270Z,4.40
2017-07-26T14:08:13.347Z,4.27
2017-07-26T14:10:41.408Z,4.40
2017-07-26T14:13:09.518Z,3.80
2017-07-26T14:15:37.563Z,6.03
2017-07-26T14:18:05.613Z,4.20
2017-07-26T14:20:33.687Z,3.30
2017-07-26T14:23:01.761Z,3.67
2017-07-26T14:25:29.823Z,4.80
2017-07-26T14:27:57.894Z,3.33
2017-07-26T14:30:26.007Z,4.20
2017-07-26T14:32:54.042Z,4.77
2017-07-26T14:35:22.104Z,3.73
2017-07-26T14:37:50.178Z,4.13
2017-07-26T14:40:18.232Z,4.13
2017-07-26T14:42:46.287Z,4.33
2017-07-26T14:45:14.354Z,4.10
2017-07-26T14:47:43.195Z,3.80
2017-07-26T14:50:11.293Z,3.50
2017-07-26T14:52:39.363Z,3.63
2017-07-26T14:55:07.439Z,3.93
2017-07-26T14:57:35.507Z,3.93
2017-07-26T15:00:03.575Z,3.50
2017-07-26T15:02:31.627Z,4.13
2017-07-26T15:04:59.692Z,3.90
2017-07-26T15:07:27.787Z,3.27
2017-07-26T15:09:55.856Z,4.30
2017-07-26T15:12:23.903Z,4.03
2017-07-26T15:14:51.965Z,4.27
2017-07-26T15:17:20.023Z,4.63
2017-07-26T15:19:48.104Z,4.53
2017-07-26T15:22:16.171Z,5.53
2017-07-26T15:24:44.239Z,5.00
2017-07-26T15:27:12.317Z,5.60
2017-07-26T15:29:40.384Z,5.90
2017-07-26T15:32:08.443Z,5.10
2017-07-26T15:34:36.514Z,4.10
2017-07-26T15:37:04.579Z,4.67
2017-07-26T15:39:32.670Z,4.07
2017-07-26T15:42:00.725Z,4.30
2017-07-26T15:44:28.769Z,4.93
2017-07-26T15:46:56.838Z,4.20
2017-07-26T15:49:24.899Z,4.97
2017-07-26T15:51:53.731Z,5.03
2017-07-26T15:54:21.810Z,4.77
2017-07-26T15:56:49.889Z,7.13
2017-07-26T15:59:17.950Z,5.13
2017-07-26T16:01:46.011Z,4.53
2017-07-26T16:04:14.078Z,6.40
2017-07-26T16:06:42.123Z,7.17
2017-07-26T16:09:10.187Z,5.10
2017-07-26T16:11:38.251Z,6.60
2017-07-26T16:14:06.310Z,4.07
2017-07-26T16:16:34.378Z,5.83
2017-07-26T16:19:02.456Z,4.20
2017-07-26T16:21:30.526Z,5.80
2017-07-26T16:23:58.603Z,4.60
2017-07-26T16:26:26.675Z,3.57
2017-07-26T16:28:55.559Z,4.20
2017-07-26T16:31:23.613Z,4.40
2017-07-26T16:33:51.675Z,4.40
2017-07-26T16:36:19.739Z,4.53
2017-07-26T16:38:47.807Z,4.13
2017-07-26T16:41:15.855Z,4.00
2017-07-26T16:43:43.955Z,4.63
2017-07-26T16:46:12.782Z,3.93
2017-07-26T16:48:40.842Z,4.20
2017-07-26T16:51:08.923Z,4.33
2017-07-26T16:53:36.999Z,4.17
2017-07-26T16:56:05.053Z,4.30
2017-07-26T16:58:33.126Z,5.43
2017-07-26T17:01:01.211Z,6.93
2017-07-26T17:03:29.274Z,5.07
2017-07-26T17:05:57.345Z,6.20
2017-07-26T17:08:25.410Z,4.53
2017-07-26T17:10:53.480Z,5.20
2017-07-26T17:13:21.569Z,4.73
2017-07-26T17:15:49.607Z,7.97
2017-07-26T17:18:18.433Z,5.37
2017-07-26T17:20:46.482Z,5.93
2017-07-26T17:23:14.570Z,6.80
2017-07-26T17:25:42.663Z,8.30
2017-07-26T17:28:10.722Z,6.70
2017-07-26T17:30:38.810Z,6.77
2017-07-26T17:33:06.870Z,9.03
2017-07-26T17:38:09.412Z,9.77
2017-07-26T17:40:38.278Z,9.80
2017-07-26T17:43:06.319Z,8.87
2017-07-26T17:45:34.391Z,10.57
2017-07-26T17:48:02.478Z,11.03
2017-07-26T17:50:30.540Z,8.30
2017-07-26T17:52:58.611Z,8.60
2017-07-26T17:55:26.700Z,7.43
2017-07-26T17:57:54.758Z,8.00
2017-07-26T18:00:22.807Z,8.33
2017-07-26T18:02:50.879Z,8.60
2017-07-26T18:05:18.944Z,7.73
2017-07-26T18:07:47.012Z,8.63
2017-07-26T18:10:15.073Z,8.33
2017-07-26T18:12:43.126Z,9.70
2017-07-26T18:15:11.228Z,8.67
2017-07-26T18:17:39.291Z,7.83
2017-07-26T18:20:07.356Z,10.47
2017-07-26T18:22:35.439Z,9.60
2017-07-26T18:25:03.503Z,7.70
2017-07-26T18:27:31.632Z,9.40
2017-07-26T18:30:00.461Z,8.67
2017-07-26T18:32:28.529Z,9.43
2017-07-26T18:34:56.644Z,8.47
2017-07-26T18:37:24.702Z,9.10
2017-07-26T18:39:52.763Z,8.73
2017-07-26T18:42:20.832Z,8.93
2017-07-26T18:44:49.630Z,9.50
2017-07-26T18:47:17.677Z,9.30
2017-07-26T18:49:45.744Z,8.63
2017-07-26T18:52:14.586Z,9.23
2017-07-26T18:54:42.646Z,8.20
2017-07-26T18:57:10.719Z,8.70
2017-07-26T18:59:38.771Z,9.17
2017-07-26T19:02:06.811Z,9.20
2017-07-26T19:04:35.664Z,8.87
2017-07-26T19:07:03.728Z,9.63
2017-07-26T19:09:32.339Z,9.03
2017-07-26T19:12:00.427Z,8.30
2017-07-26T19:14:28.496Z,7.87
2017-07-26T19:16:56.570Z,7.80
2017-07-26T19:19:25.412Z,8.30
2017-07-26T19:21:53.467Z,8.10
2017-07-26T19:24:21.560Z,9.30
2017-07-26T19:26:49.619Z,9.07
2017-07-26T19:29:17.675Z,7.60
2017-07-26T19:31:45.763Z,8.93
2017-07-26T19:34:13.854Z,8.93
2017-07-26T19:36:41.911Z,8.90
2017-07-26T19:39:10.066Z,8.37
2017-07-26T19:41:38.874Z,8.13
2017-07-26T19:44:06.937Z,8.93
2017-07-26T19:46:34.990Z,8.40
2017-07-26T19:49:03.082Z,8.80
2017-07-26T19:51:31.163Z,7.70
2017-07-26T19:54:00.002Z,9.23
2017-07-26T19:56:28.059Z,8.47
2017-07-26T19:58:56.139Z,9.20
2017-07-26T20:01:24.212Z,8.57
2017-07-26T20:03:52.286Z,9.33
2017-07-26T20:06:20.359Z,9.20
2017-07-26T20:08:48.465Z,10.67
2017-07-26T20:11:16.537Z,8.27
2017-07-26T20:13:44.653Z,10.07
2017-07-26T20:16:12.734Z,9.70
2017-07-26T20:18:40.805Z,9.40
2017-07-26T20:21:08.851Z,9.00
2017-07-26T20:23:36.897Z,8.77
2017-07-26T20:26:04.976Z,8.30
2017-07-26T20:28:33.839Z,7.70
2017-07-26T20:31:01.918Z,8.03
2017-07-26T20:33:29.978Z,7.43
2017-07-26T20:35:58.062Z,9.03
2017-07-26T20:38:26.210Z,9.30
2017-07-26T20:40:54.268Z,8.07
2017-07-26T20:43:22.356Z,8.17
2017-07-26T20:45:50.429Z,9.50
2017-07-26T20:48:18.497Z,8.37
2017-07-26T20:50:46.578Z,9.20
2017-07-26T20:53:14.665Z,9.37
2017-07-26T20:55:42.741Z,9.10
2017-07-26T20:58:10.806Z,9.93
2017-07-26T21:00:38.890Z,9.60
2017-07-26T21:03:06.969Z,9.17
2017-07-26T21:05:35.802Z,8.57
2017-07-26T21:08:03.882Z,8.70
2017-07-26T21:10:31.979Z,8.33
2017-07-26T21:13:00.035Z,9.07
2017-07-26T21:15:28.128Z,10.37
2017-07-26T21:17:56.184Z,9.63
2017-07-26T21:20:24.258Z,8.07
2017-07-26T21:22:52.331Z,10.60
2017-07-26T21:25:20.426Z,10.80
2017-07-26T21:27:48.475Z,8.33
2017-07-26T21:30:16.554Z,8.67
2017-07-26T21:32:44.607Z,8.87
2017-07-26T21:35:12.670Z,10.27
2017-07-26T21:37:40.725Z,12.37
2017-07-26T21:40:08.783Z,8.23
2017-07-26T21:42:36.853Z,7.83
2017-07-26T21:45:04.923Z,8.23
2017-07-26T21:47:32.989Z,7.90
2017-07-26T21:50:01.043Z,7.90
2017-07-26T21:52:29.898Z,6.70
2017-07-26T21:54:57.956Z,8.07
2017-07-26T21:57:26.009Z,7.07
2017-07-26T21:59:54.173Z,8.23
2017-07-26T22:02:23.079Z,7.87
2017-07-26T22:04:51.220Z,7.17
2017-07-26T22:07:20.039Z,6.80
2017-07-26T22:09:48.095Z,6.77
2017-07-26T22:12:16.168Z,7.70
2017-07-26T22:14:44.256Z,6.77
2017-07-26T22:17:12.323Z,7.43
2017-07-26T22:19:40.383Z,6.93
2017-07-26T22:22:08.465Z,6.10
2017-07-26T22:24:36.535Z,6.40
2017-07-26T22:27:04.588Z,8.17
2017-07-26T22:29:32.684Z,6.73
2017-07-26T22:32:00.755Z,6.00
2017-07-26T22:34:28.857Z,6.13
2017-07-26T22:36:56.929Z,6.07
2017-07-26T22:39:24.986Z,6.67
2017-07-26T22:41:53.054Z,10.50
2017-07-26T22:44:21.112Z,6.43
2017-07-26T22:46:49.178Z,6.50
2017-07-26T22:49:17.251Z,5.80
2017-07-26T22:51:45.335Z,5.83
2017-07-26T22:54:13.401Z,5.93
2017-07-26T22:56:41.450Z,5.50
2017-07-26T22:59:09.524Z,6.63
2017-07-26T23:01:37.571Z,6.00
2017-07-26T23:04:05.623Z,5.73
2017-07-26T23:06:33.692Z,7.30
2017-07-26T23:09:01.757Z,6.40
2017-07-26T23:11:30.584Z,5.93
2017-07-26T23:13:58.637Z,7.23
2017-07-26T23:16:26.710Z,6.13
2017-07-26T23:18:54.786Z,6.97
2017-07-26T23:21:22.835Z,7.20
2017-07-26T23:23:50.927Z,6.67
2017-07-26T23:26:18.998Z,6.27
2017-07-26T23:28:47.091Z,5.90
2017-07-26T23:31:15.136Z,7.30
2017-07-26T23:33:43.216Z,9.10
2017-07-26T23:36:11.261Z,8.13
2017-07-26T23:38:39.323Z,6.67
2017-07-26T23:41:08.151Z,6.67
2017-07-26T23:43:36.211Z,6.80
2017-07-26T23:46:04.295Z,7.23
2017-07-26T23:48:32.363Z,6.60
2017-07-26T23:51:00.418Z,6.70
2017-07-26T23:53:28.491Z,7.10
2017-07-26T23:55:56.556Z,8.43
2017-07-26T23:58:24.623Z,7.33
